Terminal Aerodrome Forecast
Issued by NWS

Home | Current Version | Previous Version | Text Only | Print | Product List | Glossary On
Versions: 1 2 3 4 5 6 7 8 9 10 11 12 13 14 15 16 17 18
444
FTUS46 KMTR 300545
TAFMRY
TAF
KMRY 300545Z 3006/0106 24008KT P6SM FEW008
      TEMPO 3006/3008 BKN008
     FM300800 24005KT P6SM OVC008
      TEMPO 3012/3016 OVC012
     FM301600 26007KT P6SM BKN012
     FM301700 29011KT P6SM SCT020
     FM302100 29015KT P6SM FEW030
     FM010300 29008KT P6SM FEW030=

USA.gov is the U.S. government's official web portal to all federal, state and local government web resources and services.